sensor_id;sensor_type;location;lat;lon;timestamp;pressure;altitude;pressure_sealevel;temperature;humidity
6389;BME280;3227;42.654;23.360;2023-05-23T00:00:30;94318.13;;;13.84;100.00
6389;BME280;3227;42.654;23.360;2023-05-23T00:02:57;94313.91;;;13.80;100.00
6389;BME280;3227;42.654;23.360;2023-05-23T00:05:25;94307.94;;;13.77;100.00
6389;BME280;3227;42.654;23.360;2023-05-23T00:07:54;94310.63;;;13.70;100.00
6389;BME280;3227;42.654;23.360;2023-05-23T00:10:21;94278.41;;;13.47;100.00
6389;BME280;3227;42.654;23.360;2023-05-23T00:12:48;94286.00;;;13.54;100.00
6389;BME280;3227;42.654;23.360;2023-05-23T00:15:15;94307.19;;;13.70;100.00
6389;BME280;3227;42.654;23.360;2023-05-23T00:17:41;94305.44;;;13.74;100.00
6389;BME280;3227;42.654;23.360;2023-05-23T00:20:09;94309.75;;;13.71;100.00
6389;BME280;3227;42.654;23.360;2023-05-23T00:22:36;94285.03;;;13.60;100.00
6389;BME280;3227;42.654;23.360;2023-05-23T00:25:09;94313.09;;;13.77;100.00
6389;BME280;3227;42.654;23.360;2023-05-23T00:27:36;94233.06;;;13.38;100.00
6389;BME280;3227;42.654;23.360;2023-05-23T00:30:03;94241.66;;;13.37;100.00
6389;BME280;3227;42.654;23.360;2023-05-23T00:32:30;94302.91;;;13.69;100.00
6389;BME280;3227;42.654;23.360;2023-05-23T00:34:57;94299.50;;;13.68;100.00
6389;BME280;3227;42.654;23.360;2023-05-23T00:37:23;94299.41;;;13.75;100.00
6389;BME280;3227;42.654;23.360;2023-05-23T00:39:50;94295.03;;;13.80;100.00
6389;BME280;3227;42.654;23.360;2023-05-23T00:42:19;94287.34;;;13.77;100.00
6389;BME280;3227;42.654;23.360;2023-05-23T00:44:45;94292.50;;;13.77;100.00
6389;BME280;3227;42.654;23.360;2023-05-23T00:47:13;94295.88;;;13.82;100.00
6389;BME280;3227;42.654;23.360;2023-05-23T00:49:39;94299.41;;;13.75;100.00
6389;BME280;3227;42.654;23.360;2023-05-23T00:52:06;94293.38;;;13.76;100.00
6389;BME280;3227;42.654;23.360;2023-05-23T00:54:33;94292.69;;;13.66;100.00
6389;BME280;3227;42.654;23.360;2023-05-23T00:57:02;94295.31;;;13.63;100.00
6389;BME280;3227;42.654;23.360;2023-05-23T00:59:30;94290.16;;;13.61;100.00
6389;BME280;3227;42.654;23.360;2023-05-23T01:01:59;94292.81;;;13.58;99.75
6389;BME280;3227;42.654;23.360;2023-05-23T01:04:26;94298.00;;;13.55;99.85
6389;BME280;3227;42.654;23.360;2023-05-23T01:06:54;94306.59;;;13.54;100.00
6389;BME280;3227;42.654;23.360;2023-05-23T01:09:21;94305.69;;;13.57;100.00
6389;BME280;3227;42.654;23.360;2023-05-23T01:11:56;94306.59;;;13.53;100.00
6389;BME280;3227;42.654;23.360;2023-05-23T01:14:31;94304.03;;;13.53;100.00
6389;BME280;3227;42.654;23.360;2023-05-23T01:17:02;94272.59;;;13.34;100.00
6389;BME280;3227;42.654;23.360;2023-05-23T01:19:48;94305.88;;;13.43;100.00
6389;BME280;3227;42.654;23.360;2023-05-23T01:22:22;94259.22;;;13.08;100.00
6389;BME280;3227;42.654;23.360;2023-05-23T01:24:56;94293.25;;;13.26;100.00
6389;BME280;3227;42.654;23.360;2023-05-23T01:27:48;94300.09;;;13.29;100.00
6389;BME280;3227;42.654;23.360;2023-05-23T01:30:18;94306.06;;;13.31;100.00
6389;BME280;3227;42.654;23.360;2023-05-23T01:32:45;94310.28;;;13.35;100.00
6389;BME280;3227;42.654;23.360;2023-05-23T01:35:14;94299.97;;;13.38;100.00
6389;BME280;3227;42.654;23.360;2023-05-23T01:37:44;94304.16;;;13.44;100.00
6389;BME280;3227;42.654;23.360;2023-05-23T01:40:11;94301.66;;;13.39;100.00
6389;BME280;3227;42.654;23.360;2023-05-23T01:42:38;94300.81;;;13.39;99.95
6389;BME280;3227;42.654;23.360;2023-05-23T01:45:08;94299.97;;;13.38;99.83
6389;BME280;3227;42.654;23.360;2023-05-23T01:47:36;94293.13;;;13.37;99.66
6389;BME280;3227;42.654;23.360;2023-05-23T01:50:04;94288.84;;;13.36;99.83
6389;BME280;3227;42.654;23.360;2023-05-23T01:52:31;94254.78;;;13.19;99.61
6389;BME280;3227;42.654;23.360;2023-05-23T01:54:58;94289.72;;;13.35;100.00
6389;BME280;3227;42.654;23.360;2023-05-23T01:57:26;94285.38;;;13.39;99.65
6389;BME280;3227;42.654;23.360;2023-05-23T01:59:54;94285.47;;;13.32;99.65
6389;BME280;3227;42.654;23.360;2023-05-23T02:02:23;94293.19;;;13.32;100.00
6389;BME280;3227;42.654;23.360;2023-05-23T02:04:50;94286.31;;;13.33;100.00
6389;BME280;3227;42.654;23.360;2023-05-23T02:07:18;94288.03;;;13.34;98.81
6389;BME280;3227;42.654;23.360;2023-05-23T02:09:47;94291.47;;;13.33;99.64
6389;BME280;3227;42.654;23.360;2023-05-23T02:12:14;94250.75;;;13.01;99.02
6389;BME280;3227;42.654;23.360;2023-05-23T02:14:41;94292.47;;;13.24;98.86
6389;BME280;3227;42.654;23.360;2023-05-23T02:17:07;94294.97;;;13.27;99.50
6389;BME280;3227;42.654;23.360;2023-05-23T02:19:36;94295.03;;;13.24;99.46
6389;BME280;3227;42.654;23.360;2023-05-23T02:22:03;94284.84;;;13.17;98.69
6389;BME280;3227;42.654;23.360;2023-05-23T02:24:55;94286.59;;;13.10;99.21
6389;BME280;3227;42.654;23.360;2023-05-23T02:27:22;94293.44;;;13.11;100.00
6389;BME280;3227;42.654;23.360;2023-05-23T02:29:48;94287.50;;;13.09;100.00
6389;BME280;3227;42.654;23.360;2023-05-23T02:32:15;94284.94;;;13.08;99.58
6389;BME280;3227;42.654;23.360;2023-05-23T02:34:43;94282.38;;;13.08;99.59
6389;BME280;3227;42.654;23.360;2023-05-23T02:37:11;94285.72;;;13.13;99.49
6389;BME280;3227;42.654;23.360;2023-05-23T02:39:38;94288.28;;;13.13;99.25
6389;BME280;3227;42.654;23.360;2023-05-23T02:42:05;94282.34;;;13.09;99.71
6389;BME280;3227;42.654;23.360;2023-05-23T02:44:32;94274.66;;;13.08;100.00
6389;BME280;3227;42.654;23.360;2023-05-23T02:46:59;94272.94;;;13.07;100.00
6389;BME280;3227;42.654;23.360;2023-05-23T02:49:25;94274.69;;;13.05;99.96
6389;BME280;3227;42.654;23.360;2023-05-23T02:51:53;94274.69;;;13.03;99.92
6389;BME280;3227;42.654;23.360;2023-05-23T02:54:20;94280.69;;;13.04;99.40
6389;BME280;3227;42.654;23.360;2023-05-23T02:56:47;94277.25;;;13.03;99.71
6389;BME280;3227;42.654;23.360;2023-05-23T02:59:15;94271.38;;;12.95;100.00
6389;BME280;3227;42.654;23.360;2023-05-23T03:01:43;94267.94;;;12.94;100.00
6389;BME280;3227;42.654;23.360;2023-05-23T03:04:10;94271.31;;;13.01;99.93
6389;BME280;3227;42.654;23.360;2023-05-23T03:06:38;94273.06;;;12.98;99.68
6389;BME280;3227;42.654;23.360;2023-05-23T03:09:08;94265.31;;;13.01;99.86
6389;BME280;3227;42.654;23.360;2023-05-23T03:11:35;94265.94;;;13.18;100.00
6389;BME280;3227;42.654;23.360;2023-05-23T03:14:02;94271.69;;;13.37;98.51
6389;BME280;3227;42.654;23.360;2023-05-23T03:16:29;94271.22;;;13.67;96.50
6389;BME280;3227;42.654;23.360;2023-05-23T03:18:56;94281.75;;;14.04;94.98
6389;BME280;3227;42.654;23.360;2023-05-23T03:21:23;94278.56;;;14.39;92.76
6389;BME280;3227;42.654;23.360;2023-05-23T03:23:50;94285.53;;;14.78;90.72
6389;BME280;3227;42.654;23.360;2023-05-23T03:26:18;94276.09;;;15.17;88.44
6389;BME280;3227;42.654;23.360;2023-05-23T03:28:46;94281.97;;;15.64;85.35
6389;BME280;3227;42.654;23.360;2023-05-23T03:31:13;94292.94;;;16.08;82.92
6389;BME280;3227;42.654;23.360;2023-05-23T03:33:40;94294.56;;;16.46;80.69
6389;BME280;3227;42.654;23.360;2023-05-23T03:36:06;94304.47;;;16.95;78.25
6389;BME280;3227;42.654;23.360;2023-05-23T03:38:33;94308.22;;;17.43;76.79
6389;BME280;3227;42.654;23.360;2023-05-23T03:41:00;94311.72;;;17.98;74.48
6389;BME280;3227;42.654;23.360;2023-05-23T03:43:28;94311.00;;;18.46;72.01
6389;BME280;3227;42.654;23.360;2023-05-23T03:46:00;94312.28;;;19.09;68.73
6389;BME280;3227;42.654;23.360;2023-05-23T03:48:27;94315.13;;;19.49;67.38
6389;BME280;3227;42.654;23.360;2023-05-23T03:50:55;94311.53;;;19.97;65.12
6389;BME280;3227;42.654;23.360;2023-05-23T03:53:22;94309.56;;;20.45;62.02
6389;BME280;3227;42.654;23.360;2023-05-23T03:55:48;94312.00;;;21.09;60.21
6389;BME280;3227;42.654;23.360;2023-05-23T03:58:18;94318.59;;;21.57;56.88
6389;BME280;3227;42.654;23.360;2023-05-23T04:00:46;94329.06;;;21.93;55.07
6389;BME280;3227;42.654;23.360;2023-05-23T04:03:14;94328.66;;;22.38;55.13
6389;BME280;3227;42.654;23.360;2023-05-23T04:05:41;94283.59;;;22.52;53.27
6389;BME280;3227;42.654;23.360;2023-05-23T04:08:08;94322.97;;;23.16;50.21
6389;BME280;3227;42.654;23.360;2023-05-23T04:10:35;94326.06;;;23.07;49.66
6389;BME280;3227;42.654;23.360;2023-05-23T04:13:02;94313.97;;;23.22;50.39
6389;BME280;3227;42.654;23.360;2023-05-23T04:15:29;94318.91;;;23.61;49.64
6389;BME280;3227;42.654;23.360;2023-05-23T04:17:59;94319.84;;;23.91;48.68
6389;BME280;3227;42.654;23.360;2023-05-23T04:20:26;94317.91;;;23.79;47.95
6389;BME280;3227;42.654;23.360;2023-05-23T04:22:53;94320.53;;;23.79;48.46
6389;BME280;3227;42.654;23.360;2023-05-23T04:25:20;94320.28;;;23.18;50.29
6389;BME280;3227;42.654;23.360;2023-05-23T04:27:47;94325.50;;;22.66;52.23
6389;BME280;3227;42.654;23.360;2023-05-23T04:30:14;94330.97;;;21.89;55.00
6389;BME280;3227;42.654;23.360;2023-05-23T04:32:42;94313.13;;;21.04;58.38
6389;BME280;3227;42.654;23.360;2023-05-23T04:35:10;94327.13;;;20.19;61.56
6389;BME280;3227;42.654;23.360;2023-05-23T04:37:37;94322.19;;;19.44;64.10
6389;BME280;3227;42.654;23.360;2023-05-23T04:40:04;94324.59;;;18.79;67.05
6389;BME280;3227;42.654;23.360;2023-05-23T04:42:31;94322.44;;;18.40;70.50
6389;BME280;3227;42.654;23.360;2023-05-23T04:44:58;94316.22;;;17.93;71.65
6389;BME280;3227;42.654;23.360;2023-05-23T04:47:26;94320.25;;;17.74;73.80
6389;BME280;3227;42.654;23.360;2023-05-23T04:49:53;94322.00;;;17.44;75.24
6389;BME280;3227;42.654;23.360;2023-05-23T04:52:22;94324.72;;;17.10;77.96
6389;BME280;3227;42.654;23.360;2023-05-23T04:54:49;94321.31;;;16.79;80.07
6389;BME280;3227;42.654;23.360;2023-05-23T04:57:18;94321.59;;;16.68;82.48
6389;BME280;3227;42.654;23.360;2023-05-23T04:59:45;94322.81;;;16.53;83.27
6389;BME280;3227;42.654;23.360;2023-05-23T05:02:12;94326.81;;;16.31;83.80
6389;BME280;3227;42.654;23.360;2023-05-23T05:04:38;94307.56;;;16.09;85.63
6389;BME280;3227;42.654;23.360;2023-05-23T05:07:05;94320.34;;;16.15;87.07
6389;BME280;3227;42.654;23.360;2023-05-23T05:09:33;94337.47;;;16.19;87.75
6389;BME280;3227;42.654;23.360;2023-05-23T05:12:00;94337.44;;;16.20;88.06
6389;BME280;3227;42.654;23.360;2023-05-23T05:14:27;94338.69;;;16.06;86.32
6389;BME280;3227;42.654;23.360;2023-05-23T05:16:54;94344.25;;;15.89;86.65
6389;BME280;3227;42.654;23.360;2023-05-23T05:19:21;94334.25;;;15.74;87.97
6389;BME280;3227;42.654;23.360;2023-05-23T05:21:48;94335.03;;;15.77;89.65
6389;BME280;3227;42.654;23.360;2023-05-23T05:24:15;94299.47;;;15.50;89.40
6389;BME280;3227;42.654;23.360;2023-05-23T05:26:47;94342.00;;;15.74;90.84
6389;BME280;3227;42.654;23.360;2023-05-23T05:29:13;94339.56;;;15.68;90.47
6389;BME280;3227;42.654;23.360;2023-05-23T05:31:40;94273.44;;;15.22;90.66
6389;BME280;3227;42.654;23.360;2023-05-23T05:34:07;94335.53;;;15.56;92.06
6389;BME280;3227;42.654;23.360;2023-05-23T05:36:34;94339.91;;;15.51;92.33
6389;BME280;3227;42.654;23.360;2023-05-23T05:39:01;94347.63;;;15.54;91.93
6389;BME280;3227;42.654;23.360;2023-05-23T05:41:28;94346.75;;;15.55;91.76
6389;BME280;3227;42.654;23.360;2023-05-23T05:43:56;94344.16;;;15.55;92.01
6389;BME280;3227;42.654;23.360;2023-05-23T05:46:23;94345.56;;;15.68;92.30
6389;BME280;3227;42.654;23.360;2023-05-23T05:48:49;94344.97;;;15.94;92.70
6389;BME280;3227;42.654;23.360;2023-05-23T05:51:16;94341.63;;;16.26;91.28
6389;BME280;3227;42.654;23.360;2023-05-23T05:53:43;94349.63;;;16.49;89.47
6389;BME280;3227;42.654;23.360;2023-05-23T05:56:10;94350.94;;;16.67;88.29
6389;BME280;3227;42.654;23.360;2023-05-23T05:58:37;94353.13;;;16.81;87.45
6389;BME280;3227;42.654;23.360;2023-05-23T06:01:06;94344.41;;;16.85;87.20
6389;BME280;3227;42.654;23.360;2023-05-23T06:03:32;94349.66;;;16.82;87.23
6389;BME280;3227;42.654;23.360;2023-05-23T06:05:59;94345.59;;;16.73;87.96
6389;BME280;3227;42.654;23.360;2023-05-23T06:08:26;94342.41;;;16.63;88.11
6389;BME280;3227;42.654;23.360;2023-05-23T06:10:53;94343.34;;;16.61;88.16
6389;BME280;3227;42.654;23.360;2023-05-23T06:13:21;94339.84;;;16.63;88.70
6389;BME280;3227;42.654;23.360;2023-05-23T06:15:52;94247.19;;;16.13;88.32
6389;BME280;3227;42.654;23.360;2023-05-23T06:18:21;94352.22;;;17.14;87.46
6389;BME280;3227;42.654;23.360;2023-05-23T06:20:48;94349.84;;;17.37;85.64
6389;BME280;3227;42.654;23.360;2023-05-23T06:23:15;94357.13;;;17.54;84.42
6389;BME280;3227;42.654;23.360;2023-05-23T06:25:41;94348.50;;;17.83;83.54
6389;BME280;3227;42.654;23.360;2023-05-23T06:28:08;94356.38;;;18.06;81.39
6389;BME280;3227;42.654;23.360;2023-05-23T06:30:35;94358.00;;;18.10;81.14
6389;BME280;3227;42.654;23.360;2023-05-23T06:33:03;94350.91;;;18.15;80.49
6389;BME280;3227;42.654;23.360;2023-05-23T06:35:31;94359.66;;;18.39;81.03
6389;BME280;3227;42.654;23.360;2023-05-23T06:37:58;94358.44;;;18.49;79.24
6389;BME280;3227;42.654;23.360;2023-05-23T06:40:24;94363.97;;;18.39;79.57
6389;BME280;3227;42.654;23.360;2023-05-23T06:42:51;94362.63;;;18.53;79.14
6389;BME280;3227;42.654;23.360;2023-05-23T06:45:18;94359.31;;;18.76;79.29
6389;BME280;3227;42.654;23.360;2023-05-23T06:47:45;94353.91;;;18.82;77.35
6389;BME280;3227;42.654;23.360;2023-05-23T06:50:12;94356.97;;;18.93;78.08
6389;BME280;3227;42.654;23.360;2023-05-23T06:52:40;94354.72;;;19.08;76.69
6389;BME280;3227;42.654;23.360;2023-05-23T06:55:08;94343.88;;;19.20;76.44
6389;BME280;3227;42.654;23.360;2023-05-23T06:57:38;94339.94;;;19.58;77.35
6389;BME280;3227;42.654;23.360;2023-05-23T07:00:06;94335.69;;;20.00;75.99
6389;BME280;3227;42.654;23.360;2023-05-23T07:02:33;94341.16;;;20.36;72.77
6389;BME280;3227;42.654;23.360;2023-05-23T07:05:00;94334.72;;;20.67;71.13
6389;BME280;3227;42.654;23.360;2023-05-23T07:07:27;94345.50;;;20.98;69.08
6389;BME280;3227;42.654;23.360;2023-05-23T07:09:55;94336.63;;;21.02;67.38
6389;BME280;3227;42.654;23.360;2023-05-23T07:12:21;94332.06;;;21.27;67.25
6389;BME280;3227;42.654;23.360;2023-05-23T07:14:48;94335.41;;;21.50;66.48
6389;BME280;3227;42.654;23.360;2023-05-23T07:17:15;94334.22;;;21.57;65.47
6389;BME280;3227;42.654;23.360;2023-05-23T07:19:42;94335.72;;;21.62;65.77
6389;BME280;3227;42.654;23.360;2023-05-23T07:22:08;94330.56;;;21.61;64.51
6389;BME280;3227;42.654;23.360;2023-05-23T07:24:35;94323.81;;;21.57;64.63
6389;BME280;3227;42.654;23.360;2023-05-23T07:27:04;94323.63;;;21.22;65.28
6389;BME280;3227;42.654;23.360;2023-05-23T07:29:31;94317.75;;;21.17;68.24
6389;BME280;3227;42.654;23.360;2023-05-23T07:31:58;94319.31;;;21.21;68.40
6389;BME280;3227;42.654;23.360;2023-05-23T07:34:25;94308.03;;;21.01;69.27
6389;BME280;3227;42.654;23.360;2023-05-23T07:36:52;94285.22;;;20.87;68.89
6389;BME280;3227;42.654;23.360;2023-05-23T07:39:19;94308.91;;;21.01;68.66
6389;BME280;3227;42.654;23.360;2023-05-23T07:41:46;94312.97;;;20.88;69.30
6389;BME280;3227;42.654;23.360;2023-05-23T07:44:17;94299.88;;;20.69;69.50
6389;BME280;3227;42.654;23.360;2023-05-23T07:46:44;94307.56;;;20.72;70.01
6389;BME280;3227;42.654;23.360;2023-05-23T07:49:11;94308.00;;;20.62;71.19
6389;BME280;3227;42.654;23.360;2023-05-23T07:51:38;94307.47;;;20.54;72.19
6389;BME280;3227;42.654;23.360;2023-05-23T07:54:06;94302.28;;;20.54;71.79
6389;BME280;3227;42.654;23.360;2023-05-23T07:56:32;94303.59;;;20.64;71.11
6389;BME280;3227;42.654;23.360;2023-05-23T07:58:59;94302.16;;;20.57;72.35
6389;BME280;3227;42.654;23.360;2023-05-23T08:01:28;94302.50;;;20.49;72.92
6389;BME280;3227;42.654;23.360;2023-05-23T08:03:54;94306.59;;;20.11;73.75
6389;BME280;3227;42.654;23.360;2023-05-23T08:06:21;94302.34;;;19.88;76.67
6389;BME280;3227;42.654;23.360;2023-05-23T08:08:48;94299.03;;;19.85;77.21
6389;BME280;3227;42.654;23.360;2023-05-23T08:11:15;94240.56;;;19.51;77.11
6389;BME280;3227;42.654;23.360;2023-05-23T08:13:43;94293.25;;;19.76;77.21
6389;BME280;3227;42.654;23.360;2023-05-23T08:16:10;94296.22;;;19.89;77.32
6389;BME280;3227;42.654;23.360;2023-05-23T08:18:39;94293.88;;;20.05;78.53
6389;BME280;3227;42.654;23.360;2023-05-23T08:21:05;94273.03;;;19.85;76.18
6389;BME280;3227;42.654;23.360;2023-05-23T08:23:32;94289.94;;;19.95;75.92
6389;BME280;3227;42.654;23.360;2023-05-23T08:25:59;94293.53;;;20.12;75.83
6389;BME280;3227;42.654;23.360;2023-05-23T08:28:26;94298.75;;;20.12;75.63
6389;BME280;3227;42.654;23.360;2023-05-23T08:30:53;94294.28;;;20.16;76.18
6389;BME280;3227;42.654;23.360;2023-05-23T08:33:21;94272.31;;;20.01;76.20
6389;BME280;3227;42.654;23.360;2023-05-23T08:35:49;94289.72;;;20.21;75.93
6389;BME280;3227;42.654;23.360;2023-05-23T08:38:16;94292.91;;;20.07;75.50
6389;BME280;3227;42.654;23.360;2023-05-23T08:40:49;94292.44;;;20.18;74.87
6389;BME280;3227;42.654;23.360;2023-05-23T08:43:16;94283.66;;;20.42;75.62
6389;BME280;3227;42.654;23.360;2023-05-23T08:45:43;94279.81;;;20.51;74.38
6389;BME280;3227;42.654;23.360;2023-05-23T08:48:12;94286.91;;;20.68;71.77
6389;BME280;3227;42.654;23.360;2023-05-23T08:50:42;94287.34;;;20.59;71.13
6389;BME280;3227;42.654;23.360;2023-05-23T08:53:14;94283.41;;;20.48;72.92
6389;BME280;3227;42.654;23.360;2023-05-23T08:55:45;94284.38;;;20.46;73.30
6389;BME280;3227;42.654;23.360;2023-05-23T08:58:12;94289.59;;;20.46;73.24
6389;BME280;3227;42.654;23.360;2023-05-23T09:00:39;94285.88;;;20.72;73.04
6389;BME280;3227;42.654;23.360;2023-05-23T09:03:07;94284.81;;;20.96;72.46
6389;BME280;3227;42.654;23.360;2023-05-23T09:05:35;94280.34;;;21.00;70.05
6389;BME280;3227;42.654;23.360;2023-05-23T09:08:02;94277.63;;;21.01;67.78
6389;BME280;3227;42.654;23.360;2023-05-23T09:10:31;94287.13;;;20.63;70.16
6389;BME280;3227;42.654;23.360;2023-05-23T09:12:57;94275.47;;;20.72;69.79
6389;BME280;3227;42.654;23.360;2023-05-23T09:15:24;94276.28;;;20.93;67.63
6389;BME280;3227;42.654;23.360;2023-05-23T09:17:51;94274.63;;;21.10;67.60
6389;BME280;3227;42.654;23.360;2023-05-23T09:20:18;94283.78;;;21.39;63.05
6389;BME280;3227;42.654;23.360;2023-05-23T09:22:45;94286.66;;;21.52;58.79
6389;BME280;3227;42.654;23.360;2023-05-23T09:25:12;94284.97;;;21.70;58.24
6389;BME280;3227;42.654;23.360;2023-05-23T09:27:41;94277.13;;;21.88;55.47
6389;BME280;3227;42.654;23.360;2023-05-23T09:30:09;94276.34;;;22.05;57.76
6389;BME280;3227;42.654;23.360;2023-05-23T09:32:36;94282.81;;;22.15;54.67
6389;BME280;3227;42.654;23.360;2023-05-23T09:35:04;94285.94;;;21.86;50.05
6389;BME280;3227;42.654;23.360;2023-05-23T09:37:33;94282.84;;;21.59;49.51
6389;BME280;3227;42.654;23.360;2023-05-23T09:40:01;94277.13;;;21.70;52.16
6389;BME280;3227;42.654;23.360;2023-05-23T09:42:32;94279.44;;;21.76;51.62
6389;BME280;3227;42.654;23.360;2023-05-23T09:45:01;94284.88;;;21.71;48.78
6389;BME280;3227;42.654;23.360;2023-05-23T09:47:28;94271.91;;;21.51;47.67
6389;BME280;3227;42.654;23.360;2023-05-23T09:49:55;94260.38;;;21.56;48.79
6389;BME280;3227;42.654;23.360;2023-05-23T09:52:22;94265.00;;;21.69;50.37
6389;BME280;3227;42.654;23.360;2023-05-23T09:54:48;94261.91;;;21.79;51.69
6389;BME280;3227;42.654;23.360;2023-05-23T09:57:15;94258.22;;;21.83;51.36
6389;BME280;3227;42.654;23.360;2023-05-23T09:59:46;94266.09;;;22.00;52.04
6389;BME280;3227;42.654;23.360;2023-05-23T10:02:29;94240.88;;;22.01;51.24
6389;BME280;3227;42.654;23.360;2023-05-23T10:05:08;94263.44;;;21.83;49.54
6389;BME280;3227;42.654;23.360;2023-05-23T10:07:38;94260.63;;;21.88;50.54
6389;BME280;3227;42.654;23.360;2023-05-23T10:10:08;94265.06;;;22.05;47.14
6389;BME280;3227;42.654;23.360;2023-05-23T10:12:41;94263.00;;;21.92;45.73
6389;BME280;3227;42.654;23.360;2023-05-23T10:15:13;94257.59;;;21.78;47.17
6389;BME280;3227;42.654;23.360;2023-05-23T10:17:52;94258.41;;;21.43;47.34
6389;BME280;3227;42.654;23.360;2023-05-23T10:20:24;94245.38;;;21.43;48.79
6389;BME280;3227;42.654;23.360;2023-05-23T10:22:52;94249.53;;;21.66;49.35
6389;BME280;3227;42.654;23.360;2023-05-23T10:25:20;94248.25;;;21.74;48.22
6389;BME280;3227;42.654;23.360;2023-05-23T10:27:47;94255.06;;;21.77;46.75
6389;BME280;3227;42.654;23.360;2023-05-23T10:30:14;94238.00;;;21.70;47.19
6389;BME280;3227;42.654;23.360;2023-05-23T10:32:42;94254.06;;;21.79;47.87
6389;BME280;3227;42.654;23.360;2023-05-23T10:35:15;94249.63;;;21.81;46.47
6389;BME280;3227;42.654;23.360;2023-05-23T10:37:48;94248.09;;;21.77;47.31
6389;BME280;3227;42.654;23.360;2023-05-23T10:40:30;94239.34;;;21.78;44.00
6389;BME280;3227;42.654;23.360;2023-05-23T10:43:15;94229.25;;;21.89;45.22
6389;BME280;3227;42.654;23.360;2023-05-23T10:45:45;94249.19;;;21.90;43.56
6389;BME280;3227;42.654;23.360;2023-05-23T10:48:31;94120.59;;;20.99;44.23
6389;BME280;3227;42.654;23.360;2023-05-23T10:51:05;94229.81;;;21.77;45.24
6389;BME280;3227;42.654;23.360;2023-05-23T10:53:34;94231.59;;;21.77;44.35
6389;BME280;3227;42.654;23.360;2023-05-23T10:56:04;94204.91;;;21.72;43.78
6389;BME280;3227;42.654;23.360;2023-05-23T10:58:31;94243.50;;;21.82;42.96
6389;BME280;3227;42.654;23.360;2023-05-23T11:01:00;94228.47;;;21.87;42.31
6389;BME280;3227;42.654;23.360;2023-05-23T11:03:32;94214.09;;;21.97;42.70
6389;BME280;3227;42.654;23.360;2023-05-23T11:06:00;94214.41;;;22.09;42.55
6389;BME280;3227;42.654;23.360;2023-05-23T11:08:35;94219.16;;;22.18;41.91
6389;BME280;3227;42.654;23.360;2023-05-23T11:11:03;94221.81;;;21.63;38.67
6389;BME280;3227;42.654;23.360;2023-05-23T11:13:53;94214.44;;;21.54;41.09
6389;BME280;3227;42.654;23.360;2023-05-23T11:16:48;94220.31;;;21.76;43.43
6389;BME280;3227;42.654;23.360;2023-05-23T11:19:22;94219.56;;;21.91;42.71
6389;BME280;3227;42.654;23.360;2023-05-23T11:21:53;94212.09;;;22.02;42.59
6389;BME280;3227;42.654;23.360;2023-05-23T11:24:22;94174.72;;;21.49;41.31
6389;BME280;3227;42.654;23.360;2023-05-23T11:26:52;94208.19;;;21.75;41.58
6389;BME280;3227;42.654;23.360;2023-05-23T11:29:21;94206.66;;;21.71;42.66
6389;BME280;3227;42.654;23.360;2023-05-23T11:31:48;94213.97;;;21.82;43.05
6389;BME280;3227;42.654;23.360;2023-05-23T11:34:16;94206.16;;;21.99;42.59
6389;BME280;3227;42.654;23.360;2023-05-23T11:36:44;94208.44;;;21.88;41.92
6389;BME280;3227;42.654;23.360;2023-05-23T11:39:12;94193.84;;;22.02;41.73
6389;BME280;3227;42.654;23.360;2023-05-23T11:41:41;94194.13;;;21.96;41.38
6389;BME280;3227;42.654;23.360;2023-05-23T11:44:12;94207.00;;;21.99;40.38
6389;BME280;3227;42.654;23.360;2023-05-23T11:46:39;94150.66;;;21.78;40.48
6389;BME280;3227;42.654;23.360;2023-05-23T11:49:12;94180.00;;;22.18;40.35
6389;BME280;3227;42.654;23.360;2023-05-23T11:51:38;94194.38;;;22.09;41.03
6389;BME280;3227;42.654;23.360;2023-05-23T11:54:05;94188.41;;;22.07;41.40
6389;BME280;3227;42.654;23.360;2023-05-23T11:56:38;94190.63;;;22.15;40.50
6389;BME280;3227;42.654;23.360;2023-05-23T11:59:08;94195.72;;;21.99;40.46
6389;BME280;3227;42.654;23.360;2023-05-23T12:01:36;94195.94;;;21.94;41.19
6389;BME280;3227;42.654;23.360;2023-05-23T12:04:08;94155.88;;;21.78;40.19
6389;BME280;3227;42.654;23.360;2023-05-23T12:06:38;94179.47;;;22.28;39.69
6389;BME280;3227;42.654;23.360;2023-05-23T12:09:05;94177.19;;;22.22;40.70
6389;BME280;3227;42.654;23.360;2023-05-23T12:11:32;94172.31;;;22.32;39.89
6389;BME280;3227;42.654;23.360;2023-05-23T12:14:00;94177.41;;;22.35;40.59
6389;BME280;3227;42.654;23.360;2023-05-23T12:16:28;94172.41;;;22.48;40.77
6389;BME280;3227;42.654;23.360;2023-05-23T12:18:56;94180.13;;;22.49;41.28
6389;BME280;3227;42.654;23.360;2023-05-23T12:21:24;94150.81;;;22.44;41.68
6389;BME280;3227;42.654;23.360;2023-05-23T12:23:51;94155.59;;;22.69;41.17
6389;BME280;3227;42.654;23.360;2023-05-23T12:26:18;94148.59;;;22.87;40.16
6389;BME280;3227;42.654;23.360;2023-05-23T12:28:46;94156.66;;;22.82;40.84
6389;BME280;3227;42.654;23.360;2023-05-23T12:31:16;94151.78;;;22.76;39.96
6389;BME280;3227;42.654;23.360;2023-05-23T12:33:45;94149.94;;;22.61;41.29
6389;BME280;3227;42.654;23.360;2023-05-23T12:36:13;94138.81;;;22.57;40.74
6389;BME280;3227;42.654;23.360;2023-05-23T12:38:41;94139.94;;;22.69;40.88
6389;BME280;3227;42.654;23.360;2023-05-23T12:41:11;94134.44;;;22.91;40.39
6389;BME280;3227;42.654;23.360;2023-05-23T12:43:38;94127.00;;;22.99;38.94
6389;BME280;3227;42.654;23.360;2023-05-23T12:46:05;94123.81;;;22.94;39.87
6389;BME280;3227;42.654;23.360;2023-05-23T12:48:32;94131.75;;;23.08;39.58
6389;BME280;3227;42.654;23.360;2023-05-23T12:51:02;94132.66;;;23.07;38.65
6389;BME280;3227;42.654;23.360;2023-05-23T12:53:29;94124.94;;;23.05;38.89
6389;BME280;3227;42.654;23.360;2023-05-23T12:55:56;94118.69;;;23.08;38.64
6389;BME280;3227;42.654;23.360;2023-05-23T12:58:23;94138.72;;;22.92;36.15
6389;BME280;3227;42.654;23.360;2023-05-23T13:00:50;94128.53;;;22.87;36.23
6389;BME280;3227;42.654;23.360;2023-05-23T13:03:17;94119.03;;;22.69;36.24
6389;BME280;3227;42.654;23.360;2023-05-23T13:05:44;94124.47;;;22.82;36.50
6389;BME280;3227;42.654;23.360;2023-05-23T13:08:12;94116.31;;;22.88;35.22
6389;BME280;3227;42.654;23.360;2023-05-23T13:10:39;94119.94;;;22.85;33.40
6389;BME280;3227;42.654;23.360;2023-05-23T13:13:06;94112.97;;;22.68;34.33
6389;BME280;3227;42.654;23.360;2023-05-23T13:15:32;94109.50;;;22.52;35.05